sensor_id;sensor_type;location;lat;lon;timestamp;pressure;altitude;pressure_sealevel;temperature;humidity
79707;BME280;69200;53.612;-2.416;2023-11-18T00:02:10;99824.72;;;6.14;100.00
79707;BME280;69200;53.612;-2.416;2023-11-18T00:04:36;99811.63;;;6.17;100.00
79707;BME280;69200;53.612;-2.416;2023-11-18T00:07:02;99800.47;;;6.14;100.00
79707;BME280;69200;53.612;-2.416;2023-11-18T00:09:29;99804.63;;;6.10;100.00
79707;BME280;69200;53.612;-2.416;2023-11-18T00:11:54;99796.75;;;6.08;100.00
79707;BME280;69200;53.612;-2.416;2023-11-18T00:14:19;99790.16;;;6.04;100.00
79707;BME280;69200;53.612;-2.416;2023-11-18T00:16:46;99797.56;;;6.09;100.00
79707;BME280;69200;53.612;-2.416;2023-11-18T00:19:11;99797.56;;;6.09;100.00
79707;BME280;69200;53.612;-2.416;2023-11-18T00:21:36;99772.13;;;6.05;100.00
79707;BME280;69200;53.612;-2.416;2023-11-18T00:24:02;99775.00;;;6.10;100.00
79707;BME280;69200;53.612;-2.416;2023-11-18T00:26:28;99767.53;;;6.12;100.00
79707;BME280;69200;53.612;-2.416;2023-11-18T00:28:54;99756.41;;;6.02;100.00
79707;BME280;69200;53.612;-2.416;2023-11-18T00:31:19;99756.16;;;6.10;100.00
79707;BME280;69200;53.612;-2.416;2023-11-18T00:33:45;99741.22;;;6.07;100.00
79707;BME280;69200;53.612;-2.416;2023-11-18T00:36:10;99735.00;;;6.07;100.00
79707;BME280;69200;53.612;-2.416;2023-11-18T00:38:35;99724.69;;;5.97;100.00
79707;BME280;69200;53.612;-2.416;2023-11-18T00:41:01;99718.47;;;6.03;100.00
79707;BME280;69200;53.612;-2.416;2023-11-18T00:43:26;99701.72;;;5.95;100.00
79707;BME280;69200;53.612;-2.416;2023-11-18T00:45:51;99694.47;;;5.95;100.00
79707;BME280;69200;53.612;-2.416;2023-11-18T00:48:17;99688.25;;;5.95;100.00
79707;BME280;69200;53.612;-2.416;2023-11-18T00:50:42;99681.84;;;5.96;100.00
79707;BME280;69200;53.612;-2.416;2023-11-18T00:53:08;99681.22;;;5.94;100.00
79707;BME280;69200;53.612;-2.416;2023-11-18T00:55:35;99671.88;;;5.96;100.00
79707;BME280;69200;53.612;-2.416;2023-11-18T00:58:00;99665.25;;;5.92;100.00
79707;BME280;69200;53.612;-2.416;2023-11-18T01:00:26;99647.25;;;5.93;100.00
79707;BME280;69200;53.612;-2.416;2023-11-18T01:02:53;99646.63;;;5.91;100.00
79707;BME280;69200;53.612;-2.416;2023-11-18T01:05:20;99651.78;;;5.92;100.00
79707;BME280;69200;53.612;-2.416;2023-11-18T01:07:46;99639.38;;;5.84;100.00
79707;BME280;69200;53.612;-2.416;2023-11-18T01:10:12;99652.81;;;5.98;100.00
79707;BME280;69200;53.612;-2.416;2023-11-18T01:12:39;99652.13;;;6.09;100.00
79707;BME280;69200;53.612;-2.416;2023-11-18T01:15:04;99646.00;;;5.95;100.00
79707;BME280;69200;53.612;-2.416;2023-11-18T01:17:30;99642.22;;;6.03;100.00
79707;BME280;69200;53.612;-2.416;2023-11-18T01:19:57;99638.16;;;5.94;100.00
79707;BME280;69200;53.612;-2.416;2023-11-18T01:22:22;99637.28;;;5.93;100.00
79707;BME280;69200;53.612;-2.416;2023-11-18T01:24:48;99625.31;;;5.82;100.00
79707;BME280;69200;53.612;-2.416;2023-11-18T01:27:13;99626.16;;;5.76;100.00
79707;BME280;69200;53.612;-2.416;2023-11-18T01:29:39;99629.03;;;5.88;100.00
79707;BME280;69200;53.612;-2.416;2023-11-18T01:32:06;99629.44;;;5.92;100.00
79707;BME280;69200;53.612;-2.416;2023-11-18T01:34:35;99613.91;;;5.94;100.00
79707;BME280;69200;53.612;-2.416;2023-11-18T01:37:01;99594.09;;;5.75;100.00
79707;BME280;69200;53.612;-2.416;2023-11-18T01:39:26;99590.31;;;5.82;100.00
79707;BME280;69200;53.612;-2.416;2023-11-18T01:41:52;99594.09;;;5.75;100.00
79707;BME280;69200;53.612;-2.416;2023-11-18T01:44:18;99592.63;;;5.79;100.00
79707;BME280;69200;53.612;-2.416;2023-11-18T01:46:45;99593.03;;;5.76;100.00
79707;BME280;69200;53.612;-2.416;2023-11-18T01:49:14;99588.91;;;5.73;100.00
79707;BME280;69200;53.612;-2.416;2023-11-18T01:51:44;99566.13;;;5.76;100.00
79707;BME280;69200;53.612;-2.416;2023-11-18T01:54:12;99561.38;;;5.78;100.00
79707;BME280;69200;53.612;-2.416;2023-11-18T01:56:42;99544.19;;;5.72;100.00
79707;BME280;69200;53.612;-2.416;2023-11-18T01:59:09;99549.59;;;5.72;100.00
79707;BME280;69200;53.612;-2.416;2023-11-18T02:01:35;99544.19;;;5.72;100.00
79707;BME280;69200;53.612;-2.416;2023-11-18T02:04:01;99548.72;;;5.78;100.00
79707;BME280;69200;53.612;-2.416;2023-11-18T02:06:27;99521.63;;;5.73;100.00
79707;BME280;69200;53.612;-2.416;2023-11-18T02:08:53;99506.28;;;5.74;100.00
79707;BME280;69200;53.612;-2.416;2023-11-18T02:11:28;99495.31;;;5.75;100.00
79707;BME280;69200;53.612;-2.416;2023-11-18T02:13:58;99485.75;;;5.79;100.00
79707;BME280;69200;53.612;-2.416;2023-11-18T02:16:28;99480.41;;;5.73;100.00
79707;BME280;69200;53.612;-2.416;2023-11-18T02:18:54;99473.34;;;5.78;100.00
79707;BME280;69200;53.612;-2.416;2023-11-18T02:21:20;99464.22;;;5.79;100.00
79707;BME280;69200;53.612;-2.416;2023-11-18T02:23:48;99459.25;;;5.76;100.00
79707;BME280;69200;53.612;-2.416;2023-11-18T02:26:23;99460.91;;;5.77;100.00
79707;BME280;69200;53.612;-2.416;2023-11-18T02:28:49;99456.75;;;5.81;100.00
79707;BME280;69200;53.612;-2.416;2023-11-18T02:31:22;99448.84;;;5.86;100.00
79707;BME280;69200;53.612;-2.416;2023-11-18T02:34:08;99434.34;;;5.87;100.00
79707;BME280;69200;53.612;-2.416;2023-11-18T02:36:44;99435.97;;;5.88;100.00
79707;BME280;69200;53.612;-2.416;2023-11-18T02:39:17;99416.72;;;5.92;100.00
79707;BME280;69200;53.612;-2.416;2023-11-18T02:41:48;99416.09;;;5.89;100.00
79707;BME280;69200;53.612;-2.416;2023-11-18T02:44:17;99408.63;;;5.92;100.00
79707;BME280;69200;53.612;-2.416;2023-11-18T02:46:43;99396.63;;;5.94;100.00
79707;BME280;69200;53.612;-2.416;2023-11-18T02:49:09;99393.66;;;6.02;100.00
79707;BME280;69200;53.612;-2.416;2023-11-18T02:51:35;99393.69;;;5.96;100.00
79707;BME280;69200;53.612;-2.416;2023-11-18T02:54:07;99385.63;;;5.96;100.00
79707;BME280;69200;53.612;-2.416;2023-11-18T02:56:38;99369.88;;;5.93;100.00
79707;BME280;69200;53.612;-2.416;2023-11-18T02:59:03;99360.94;;;5.99;100.00
79707;BME280;69200;53.612;-2.416;2023-11-18T03:01:33;99356.31;;;6.06;100.00
79707;BME280;69200;53.612;-2.416;2023-11-18T03:04:01;99355.84;;;6.09;100.00
79707;BME280;69200;53.612;-2.416;2023-11-18T03:06:27;99352.13;;;6.10;100.00
79707;BME280;69200;53.612;-2.416;2023-11-18T03:08:52;99337.50;;;6.17;100.00
79707;BME280;69200;53.612;-2.416;2023-11-18T03:11:21;99323.22;;;6.17;100.00
79707;BME280;69200;53.612;-2.416;2023-11-18T03:13:47;99311.63;;;6.16;100.00
79707;BME280;69200;53.612;-2.416;2023-11-18T03:16:13;99330.34;;;6.30;100.00
79707;BME280;69200;53.612;-2.416;2023-11-18T03:18:39;99314.19;;;6.30;100.00
79707;BME280;69200;53.612;-2.416;2023-11-18T03:21:10;99311.25;;;6.31;100.00
79707;BME280;69200;53.612;-2.416;2023-11-18T03:23:37;99293.91;;;6.27;100.00
79707;BME280;69200;53.612;-2.416;2023-11-18T03:26:03;99294.41;;;6.36;100.00
79707;BME280;69200;53.612;-2.416;2023-11-18T03:28:28;99285.44;;;6.42;100.00
79707;BME280;69200;53.612;-2.416;2023-11-18T03:30:54;99281.78;;;6.36;100.00
79707;BME280;69200;53.612;-2.416;2023-11-18T03:33:19;99263.97;;;6.35;100.00
79707;BME280;69200;53.612;-2.416;2023-11-18T03:35:45;99255.66;;;6.37;100.00
79707;BME280;69200;53.612;-2.416;2023-11-18T03:38:10;99237.25;;;6.34;100.00
79707;BME280;69200;53.612;-2.416;2023-11-18T03:40:35;99244.88;;;6.37;100.00
79707;BME280;69200;53.612;-2.416;2023-11-18T03:43:01;99234.44;;;6.40;100.00
79707;BME280;69200;53.612;-2.416;2023-11-18T03:45:26;99232.81;;;6.39;100.00
79707;BME280;69200;53.612;-2.416;2023-11-18T03:47:52;99216.06;;;6.49;100.00
79707;BME280;69200;53.612;-2.416;2023-11-18T03:50:17;99217.38;;;6.47;100.00
79707;BME280;69200;53.612;-2.416;2023-11-18T03:52:42;99217.84;;;6.43;100.00
79707;BME280;69200;53.612;-2.416;2023-11-18T03:55:08;99211.63;;;6.43;100.00
79707;BME280;69200;53.612;-2.416;2023-11-18T03:57:34;99195.22;;;6.44;100.00
79707;BME280;69200;53.612;-2.416;2023-11-18T03:59:59;99202.16;;;6.52;100.00
79707;BME280;69200;53.612;-2.416;2023-11-18T04:02:25;99195.81;;;6.47;100.00
79707;BME280;69200;53.612;-2.416;2023-11-18T04:04:51;99176.84;;;6.53;100.00
79707;BME280;69200;53.612;-2.416;2023-11-18T04:07:17;99170.06;;;6.51;100.00
79707;BME280;69200;53.612;-2.416;2023-11-18T04:09:42;99153.59;;;6.40;100.00
79707;BME280;69200;53.612;-2.416;2023-11-18T04:12:09;99149.31;;;6.51;100.00
79707;BME280;69200;53.612;-2.416;2023-11-18T04:14:36;99161.03;;;6.57;100.00
79707;BME280;69200;53.612;-2.416;2023-11-18T04:17:02;99146.47;;;6.46;100.00
79707;BME280;69200;53.612;-2.416;2023-11-18T04:19:28;99151.06;;;6.57;100.00
79707;BME280;69200;53.612;-2.416;2023-11-18T04:21:53;99155.56;;;6.75;100.00
79707;BME280;69200;53.612;-2.416;2023-11-18T04:24:19;99144.50;;;6.65;100.00
79707;BME280;69200;53.612;-2.416;2023-11-18T04:26:44;99137.59;;;6.57;100.00
79707;BME280;69200;53.612;-2.416;2023-11-18T04:29:10;99121.66;;;6.56;100.00
79707;BME280;69200;53.612;-2.416;2023-11-18T04:31:35;99119.66;;;6.63;100.00
79707;BME280;69200;53.612;-2.416;2023-11-18T04:34:02;99111.47;;;6.81;100.00
79707;BME280;69200;53.612;-2.416;2023-11-18T04:36:29;99112.19;;;6.88;100.00
79707;BME280;69200;53.612;-2.416;2023-11-18T04:38:56;99112.66;;;6.85;100.00
79707;BME280;69200;53.612;-2.416;2023-11-18T04:41:21;99098.22;;;6.80;100.00
79707;BME280;69200;53.612;-2.416;2023-11-18T04:43:48;99093.56;;;6.75;100.00
79707;BME280;69200;53.612;-2.416;2023-11-18T04:46:14;99102.81;;;6.91;100.00
79707;BME280;69200;53.612;-2.416;2023-11-18T04:48:39;99098.94;;;6.87;100.00
79707;BME280;69200;53.612;-2.416;2023-11-18T04:51:05;99103.03;;;6.89;100.00
79707;BME280;69200;53.612;-2.416;2023-11-18T04:53:31;99089.91;;;6.93;100.00
79707;BME280;69200;53.612;-2.416;2023-11-18T04:55:57;99085.56;;;7.04;100.00
79707;BME280;69200;53.612;-2.416;2023-11-18T04:58:23;99084.97;;;7.01;100.00
79707;BME280;69200;53.612;-2.416;2023-11-18T05:00:49;99089.34;;;6.91;100.00
79707;BME280;69200;53.612;-2.416;2023-11-18T05:03:16;99073.13;;;7.03;100.00
79707;BME280;69200;53.612;-2.416;2023-11-18T05:05:42;99060.59;;;6.96;100.00
79707;BME280;69200;53.612;-2.416;2023-11-18T05:08:07;99065.28;;;7.01;100.00
79707;BME280;69200;53.612;-2.416;2023-11-18T05:10:34;99050.41;;;6.98;100.00
79707;BME280;69200;53.612;-2.416;2023-11-18T05:13:00;99042.16;;;7.05;100.00
79707;BME280;69200;53.612;-2.416;2023-11-18T05:15:26;99047.09;;;7.08;100.00
79707;BME280;69200;53.612;-2.416;2023-11-18T05:17:52;99045.88;;;7.27;100.00
79707;BME280;69200;53.612;-2.416;2023-11-18T05:20:19;99047.19;;;7.25;100.00
79707;BME280;69200;53.612;-2.416;2023-11-18T05:22:44;99042.28;;;7.22;100.00
79707;BME280;69200;53.612;-2.416;2023-11-18T05:25:10;99033.31;;;7.33;100.00
79707;BME280;69200;53.612;-2.416;2023-11-18T05:27:35;99029.81;;;7.21;100.00
79707;BME280;69200;53.612;-2.416;2023-11-18T05:30:01;99026.28;;;7.32;100.00
79707;BME280;69200;53.612;-2.416;2023-11-18T05:32:28;99021.38;;;7.17;100.00
79707;BME280;69200;53.612;-2.416;2023-11-18T05:34:53;99022.16;;;7.29;100.00
79707;BME280;69200;53.612;-2.416;2023-11-18T05:37:23;99017.69;;;7.35;100.00
79707;BME280;69200;53.612;-2.416;2023-11-18T05:39:49;99011.09;;;7.43;100.00
79707;BME280;69200;53.612;-2.416;2023-11-18T05:42:24;99000.94;;;7.33;100.00
79707;BME280;69200;53.612;-2.416;2023-11-18T05:44:50;99000.06;;;7.44;100.00
79707;BME280;69200;53.612;-2.416;2023-11-18T05:47:23;98991.34;;;7.54;100.00
79707;BME280;69200;53.612;-2.416;2023-11-18T05:49:48;98984.63;;;7.56;100.00
79707;BME280;69200;53.612;-2.416;2023-11-18T05:52:14;98979.91;;;7.64;100.00
79707;BME280;69200;53.612;-2.416;2023-11-18T05:54:39;98969.25;;;7.57;100.00
79707;BME280;69200;53.612;-2.416;2023-11-18T05:57:04;98967.47;;;7.63;100.00
79707;BME280;69200;53.612;-2.416;2023-11-18T05:59:30;98962.97;;;7.68;100.00
79707;BME280;69200;53.612;-2.416;2023-11-18T06:01:55;98959.28;;;7.74;100.00
79707;BME280;69200;53.612;-2.416;2023-11-18T06:04:22;98954.88;;;7.85;100.00
79707;BME280;69200;53.612;-2.416;2023-11-18T06:06:47;98939.06;;;7.77;100.00
79707;BME280;69200;53.612;-2.416;2023-11-18T06:09:13;98945.72;;;7.86;100.00
79707;BME280;69200;53.612;-2.416;2023-11-18T06:11:48;98931.78;;;7.77;100.00
79707;BME280;69200;53.612;-2.416;2023-11-18T06:14:14;98939.50;;;7.85;100.00
79707;BME280;69200;53.612;-2.416;2023-11-18T06:16:40;98934.44;;;7.89;100.00
79707;BME280;69200;53.612;-2.416;2023-11-18T06:19:06;98931.97;;;8.04;100.00
79707;BME280;69200;53.612;-2.416;2023-11-18T06:21:31;98926.00;;;8.02;100.00
79707;BME280;69200;53.612;-2.416;2023-11-18T06:23:58;98916.66;;;7.93;100.00
79707;BME280;69200;53.612;-2.416;2023-11-18T06:26:24;98922.22;;;8.03;100.00
79707;BME280;69200;53.612;-2.416;2023-11-18T06:28:52;98901.84;;;8.12;100.00
79707;BME280;69200;53.612;-2.416;2023-11-18T06:31:19;98893.81;;;8.01;100.00
79707;BME280;69200;53.612;-2.416;2023-11-18T06:33:46;98897.41;;;8.06;100.00
79707;BME280;69200;53.612;-2.416;2023-11-18T06:38:45;98889.69;;;8.15;100.00
79707;BME280;69200;53.612;-2.416;2023-11-18T06:41:10;98876.44;;;8.13;100.00
79707;BME280;69200;53.612;-2.416;2023-11-18T06:43:39;98881.44;;;8.22;100.00
79707;BME280;69200;53.612;-2.416;2023-11-18T06:46:31;98879.41;;;8.12;100.00
79707;BME280;69200;53.612;-2.416;2023-11-18T06:48:58;98880.50;;;8.33;100.00
79707;BME280;69200;53.612;-2.416;2023-11-18T06:51:26;98864.56;;;8.14;100.00
79707;BME280;69200;53.612;-2.416;2023-11-18T06:53:53;98846.22;;;8.17;100.00
79707;BME280;69200;53.612;-2.416;2023-11-18T06:56:24;98853.91;;;8.25;100.00
79707;BME280;69200;53.612;-2.416;2023-11-18T06:58:50;98852.25;;;8.24;100.00
79707;BME280;69200;53.612;-2.416;2023-11-18T07:01:16;98852.81;;;8.26;100.00
79707;BME280;69200;53.612;-2.416;2023-11-18T07:03:42;98855.75;;;8.41;100.00
79707;BME280;69200;53.612;-2.416;2023-11-18T07:06:08;98845.56;;;8.26;100.00
79707;BME280;69200;53.612;-2.416;2023-11-18T07:08:35;98865.50;;;8.42;100.00
79707;BME280;69200;53.612;-2.416;2023-11-18T07:11:01;98871.09;;;8.57;100.00
79707;BME280;69200;53.612;-2.416;2023-11-18T07:13:27;98873.75;;;8.52;100.00
79707;BME280;69200;53.612;-2.416;2023-11-18T07:15:53;98871.19;;;8.62;100.00
79707;BME280;69200;53.612;-2.416;2023-11-18T07:18:22;98863.69;;;8.69;100.00
79707;BME280;69200;53.612;-2.416;2023-11-18T07:20:51;98858.91;;;8.77;100.00
79707;BME280;69200;53.612;-2.416;2023-11-18T07:23:20;98841.09;;;8.81;100.00
79707;BME280;69200;53.612;-2.416;2023-11-18T07:25:45;98852.59;;;8.93;100.00
79707;BME280;69200;53.612;-2.416;2023-11-18T07:28:12;98835.22;;;8.89;100.00
79707;BME280;69200;53.612;-2.416;2023-11-18T07:30:41;98843.13;;;8.90;100.00
79707;BME280;69200;53.612;-2.416;2023-11-18T07:33:06;98837.44;;;8.92;100.00
79707;BME280;69200;53.612;-2.416;2023-11-18T07:35:33;98834.16;;;8.90;100.00
79707;BME280;69200;53.612;-2.416;2023-11-18T07:37:59;98830.91;;;8.88;100.00
79707;BME280;69200;53.612;-2.416;2023-11-18T07:40:25;98832.50;;;8.84;100.00
79707;BME280;69200;53.612;-2.416;2023-11-18T07:42:56;98836.63;;;8.91;100.00
79707;BME280;69200;53.612;-2.416;2023-11-18T07:45:22;98838.00;;;8.94;100.00
79707;BME280;69200;53.612;-2.416;2023-11-18T07:47:51;98839.28;;;8.86;100.00
79707;BME280;69200;53.612;-2.416;2023-11-18T07:50:18;98823.41;;;8.95;100.00
79707;BME280;69200;53.612;-2.416;2023-11-18T07:52:45;98834.03;;;9.02;100.00
79707;BME280;69200;53.612;-2.416;2023-11-18T07:55:13;98828.41;;;9.08;100.00
79707;BME280;69200;53.612;-2.416;2023-11-18T07:57:38;98836.56;;;9.13;100.00
79707;BME280;69200;53.612;-2.416;2023-11-18T08:00:04;98841.41;;;9.11;100.00
79707;BME280;69200;53.612;-2.416;2023-11-18T08:02:36;98849.03;;;9.14;100.00
79707;BME280;69200;53.612;-2.416;2023-11-18T08:05:03;98843.13;;;9.17;100.00
79707;BME280;69200;53.612;-2.416;2023-11-18T08:07:29;98844.81;;;9.23;100.00
79707;BME280;69200;53.612;-2.416;2023-11-18T08:09:54;98838.56;;;9.23;100.00
79707;BME280;69200;53.612;-2.416;2023-11-18T08:12:19;98822.53;;;9.16;100.00
79707;BME280;69200;53.612;-2.416;2023-11-18T08:14:45;98830.13;;;9.19;100.00
79707;BME280;69200;53.612;-2.416;2023-11-18T08:17:12;98830.00;;;9.36;100.00
79707;BME280;69200;53.612;-2.416;2023-11-18T08:19:38;98813.97;;;9.30;100.00
79707;BME280;69200;53.612;-2.416;2023-11-18T08:22:03;98828.09;;;9.32;100.00
79707;BME280;69200;53.612;-2.416;2023-11-18T08:24:29;98831.34;;;9.34;100.00
79707;BME280;69200;53.612;-2.416;2023-11-18T08:26:55;98820.00;;;9.37;100.00
79707;BME280;69200;53.612;-2.416;2023-11-18T08:29:20;98828.94;;;9.37;100.00
79707;BME280;69200;53.612;-2.416;2023-11-18T08:31:46;98835.25;;;9.48;100.00
79707;BME280;69200;53.612;-2.416;2023-11-18T08:34:12;98840.84;;;9.36;100.00
79707;BME280;69200;53.612;-2.416;2023-11-18T08:36:37;98843.06;;;9.44;100.00
79707;BME280;69200;53.612;-2.416;2023-11-18T08:39:02;98825.47;;;9.42;100.00
79707;BME280;69200;53.612;-2.416;2023-11-18T08:41:29;98841.53;;;9.53;100.00
79707;BME280;69200;53.612;-2.416;2023-11-18T08:43:56;98828.78;;;9.54;100.00
79707;BME280;69200;53.612;-2.416;2023-11-18T08:46:22;98826.41;;;9.58;100.00
79707;BME280;69200;53.612;-2.416;2023-11-18T08:48:47;98824.03;;;9.66;100.00
79707;BME280;69200;53.612;-2.416;2023-11-18T08:51:13;98816.13;;;9.60;100.00
79707;BME280;69200;53.612;-2.416;2023-11-18T08:53:41;98810.44;;;9.61;100.00
79707;BME280;69200;53.612;-2.416;2023-11-18T08:56:09;98811.34;;;9.72;100.00
79707;BME280;69200;53.612;-2.416;2023-11-18T08:58:48;98804.75;;;9.58;100.00
79707;BME280;69200;53.612;-2.416;2023-11-18T09:01:14;98813.75;;;9.68;100.00
79707;BME280;69200;53.612;-2.416;2023-11-18T09:03:41;98813.47;;;9.70;100.00
79707;BME280;69200;53.612;-2.416;2023-11-18T09:06:14;98812.66;;;9.69;100.00
79707;BME280;69200;53.612;-2.416;2023-11-18T09:08:44;98807.28;;;9.74;100.00
79707;BME280;69200;53.612;-2.416;2023-11-18T09:11:12;98818.16;;;9.79;100.00
79707;BME280;69200;53.612;-2.416;2023-11-18T09:13:44;98818.06;;;9.69;100.00
79707;BME280;69200;53.612;-2.416;2023-11-18T09:16:20;98802.16;;;9.78;100.00
79707;BME280;69200;53.612;-2.416;2023-11-18T09:18:51;98817.03;;;9.75;100.00
79707;BME280;69200;53.612;-2.416;2023-11-18T09:21:17;98828.91;;;9.69;100.00
79707;BME280;69200;53.612;-2.416;2023-11-18T09:23:50;98829.22;;;9.73;100.00
79707;BME280;69200;53.612;-2.416;2023-11-18T09:26:15;98825.72;;;9.77;100.00
79707;BME280;69200;53.612;-2.416;2023-11-18T09:28:42;98830.31;;;9.77;100.00
79707;BME280;69200;53.612;-2.416;2023-11-18T09:31:07;98820.31;;;9.77;100.00
79707;BME280;69200;53.612;-2.416;2023-11-18T09:33:37;98830.16;;;9.89;100.00
79707;BME280;69200;53.612;-2.416;2023-11-18T09:36:07;98814.44;;;9.91;100.00
79707;BME280;69200;53.612;-2.416;2023-11-18T09:38:36;98806.34;;;9.96;100.00
79707;BME280;69200;53.612;-2.416;2023-11-18T09:41:06;98793.94;;;10.05;100.00
79707;BME280;69200;53.612;-2.416;2023-11-18T09:43:39;98806.38;;;10.01;100.00
79707;BME280;69200;53.612;-2.416;2023-11-18T09:46:09;98816.13;;;10.02;100.00
79707;BME280;69200;53.612;-2.416;2023-11-18T09:51:19;98797.50;;;10.11;100.00
79707;BME280;69200;53.612;-2.416;2023-11-18T09:53:49;98772.59;;;10.19;100.00
79707;BME280;69200;53.612;-2.416;2023-11-18T09:56:23;98760.09;;;10.13;100.00
79707;BME280;69200;53.612;-2.416;2023-11-18T09:59:07;98780.19;;;10.22;100.00
79707;BME280;69200;53.612;-2.416;2023-11-18T10:01:42;98762.88;;;10.23;100.00
79707;BME280;69200;53.612;-2.416;2023-11-18T10:04:09;98772.94;;;10.27;100.00
79707;BME280;69200;53.612;-2.416;2023-11-18T10:06:36;98778.34;;;10.27;100.00
79707;BME280;69200;53.612;-2.416;2023-11-18T10:09:06;98771.84;;;10.33;100.00
79707;BME280;69200;53.612;-2.416;2023-11-18T10:11:47;98781.38;;;10.36;100.00
79707;BME280;69200;53.612;-2.416;2023-11-18T10:14:14;98772.41;;;10.41;100.00
79707;BME280;69200;53.612;-2.416;2023-11-18T10:16:41;98773.75;;;10.33;100.00
79707;BME280;69200;53.612;-2.416;2023-11-18T10:19:07;98779.19;;;10.38;100.00
79707;BME280;69200;53.612;-2.416;2023-11-18T10:21:37;98784.13;;;10.46;100.00
79707;BME280;69200;53.612;-2.416;2023-11-18T10:24:05;98759.19;;;10.54;100.00
79707;BME280;69200;53.612;-2.416;2023-11-18T10:26:37;98761.91;;;10.64;100.00
79707;BME280;69200;53.612;-2.416;2023-11-18T10:29:03;98757.88;;;10.67;100.00
79707;BME280;69200;53.612;-2.416;2023-11-18T10:31:34;98763.06;;;10.84;100.00
79707;BME280;69200;53.612;-2.416;2023-11-18T10:34:01;98754.91;;;10.84;100.00
79707;BME280;69200;53.612;-2.416;2023-11-18T10:36:26;98762.50;;;10.87;100.00
79707;BME280;69200;53.612;-2.416;2023-11-18T10:38:52;98745.97;;;11.04;100.00
79707;BME280;69200;53.612;-2.416;2023-11-18T10:41:21;98757.91;;;11.13;100.00
79707;BME280;69200;53.612;-2.416;2023-11-18T10:43:46;98766.09;;;11.23;100.00
79707;BME280;69200;53.612;-2.416;2023-11-18T10:46:14;98769.88;;;11.37;100.00
79707;BME280;69200;53.612;-2.416;2023-11-18T10:48:48;98775.03;;;11.59;100.00
79707;BME280;69200;53.612;-2.416;2023-11-18T10:51:17;98766.88;;;11.59;100.00
79707;BME280;69200;53.612;-2.416;2023-11-18T10:53:46;98759.50;;;11.70;100.00
79707;BME280;69200;53.612;-2.416;2023-11-18T10:56:27;98760.06;;;11.87;100.00
79707;BME280;69200;53.612;-2.416;2023-11-18T10:58:56;98757.88;;;11.89;100.00
79707;BME280;69200;53.612;-2.416;2023-11-18T11:01:31;98749.13;;;12.02;100.00
79707;BME280;69200;53.612;-2.416;2023-11-18T11:03:57;98743.97;;;12.11;100.00
79707;BME280;69200;53.612;-2.416;2023-11-18T11:06:24;98740.66;;;12.19;100.00
79707;BME280;69200;53.612;-2.416;2023-11-18T11:08:53;98733.53;;;12.28;100.00
79707;BME280;69200;53.612;-2.416;2023-11-18T11:11:22;98734.88;;;12.31;100.00
79707;BME280;69200;53.612;-2.416;2023-11-18T11:14:02;98733.72;;;12.47;100.00
79707;BME280;69200;53.612;-2.416;2023-11-18T11:16:36;98739.13;;;12.52;100.00
79707;BME280;69200;53.612;-2.416;2023-11-18T11:19:04;98731.59;;;12.39;100.00
79707;BME280;69200;53.612;-2.416;2023-11-18T11:21:44;98729.97;;;12.38;100.00
79707;BME280;69200;53.612;-2.416;2023-11-18T11:24:27;98727.47;;;12.42;100.00
79707;BME280;69200;53.612;-2.416;2023-11-18T11:27:09;98722.84;;;12.47;100.00
79707;BME280;69200;53.612;-2.416;2023-11-18T11:29:50;98723.34;;;12.54;100.00
79707;BME280;69200;53.612;-2.416;2023-11-18T11:32:35;98720.16;;;12.37;100.00
79707;BME280;69200;53.612;-2.416;2023-11-18T11:35:07;98715.84;;;12.31;100.00
79707;BME280;69200;53.612;-2.416;2023-11-18T11:37:34;98724.53;;;12.33;100.00
79707;BME280;69200;53.612;-2.416;2023-11-18T11:40:00;98726.13;;;12.39;100.00
79707;BME280;69200;53.612;-2.416;2023-11-18T11:42:31;98718.41;;;12.56;100.00
79707;BME280;69200;53.612;-2.416;2023-11-18T11:44:57;98712.44;;;12.59;100.00
79707;BME280;69200;53.612;-2.416;2023-11-18T11:47:25;98711.06;;;12.62;100.00
79707;BME280;69200;53.612;-2.416;2023-11-18T11:50:10;98715.75;;;12.51;100.00
79707;BME280;69200;53.612;-2.416;2023-11-18T11:52:46;98710.06;;;12.43;100.00
79707;BME280;69200;53.612;-2.416;2023-11-18T11:55:30;98703.22;;;12.50;100.00
79707;BME280;69200;53.612;-2.416;2023-11-18T11:57:58;98703.19;;;12.55;100.00
79707;BME280;69200;53.612;-2.416;2023-11-18T12:00:25;98697.19;;;12.58;100.00
79707;BME280;69200;53.612;-2.416;2023-11-18T12:03:00;98702.88;;;12.62;100.00
79707;BME280;69200;53.612;-2.416;2023-11-18T12:05:29;98699.63;;;12.60;100.00
79707;BME280;69200;53.612;-2.416;2023-11-18T12:07:59;98697.22;;;12.53;100.00
79707;BME280;69200;53.612;-2.416;2023-11-18T12:10:28;98697.47;;;12.57;100.00
79707;BME280;69200;53.612;-2.416;2023-11-18T12:13:11;98692.91;;;12.42;100.00
79707;BME280;69200;53.612;-2.416;2023-11-18T12:18:20;98684.75;;;12.47;100.00
79707;BME280;69200;53.612;-2.416;2023-11-18T12:20:47;98684.16;;;12.55;100.00
79707;BME280;69200;53.612;-2.416;2023-11-18T12:23:15;98693.13;;;12.51;100.00
79707;BME280;69200;53.612;-2.416;2023-11-18T12:25:43;98687.47;;;12.42;100.00
79707;BME280;69200;53.612;-2.416;2023-11-18T12:28:13;98690.78;;;12.39;100.00
79707;BME280;69200;53.612;-2.416;2023-11-18T12:30:41;98693.72;;;12.48;100.00
79707;BME280;69200;53.612;-2.416;2023-11-18T12:33:17;98696.66;;;12.56;100.00
79707;BME280;69200;53.612;-2.416;2023-11-18T12:41:37;98690.19;;;12.42;100.00
79707;BME280;69200;53.612;-2.416;2023-11-18T12:49:15;98693.50;;;12.34;100.00
79707;BME280;69200;53.612;-2.416;2023-11-18T12:51:44;98681.06;;;12.28;100.00
79707;BME280;69200;53.612;-2.416;2023-11-18T12:54:11;98677.47;;;12.38;100.00
79707;BME280;69200;53.612;-2.416;2023-11-18T12:56:37;98684.53;;;12.33;100.00
79707;BME280;69200;53.612;-2.416;2023-11-18T12:59:04;98669.28;;;12.38;100.00
79707;BME280;69200;53.612;-2.416;2023-11-18T13:01:32;98662.53;;;12.30;100.00
79707;BME280;69200;53.612;-2.416;2023-11-18T13:04:02;98676.38;;;12.33;100.00
79707;BME280;69200;53.612;-2.416;2023-11-18T13:06:27;98670.63;;;12.40;100.00
79707;BME280;69200;53.612;-2.416;2023-11-18T13:08:53;98658.09;;;12.44;100.00
79707;BME280;69200;53.612;-2.416;2023-11-18T13:11:21;98658.06;;;12.49;100.00